Terminal Aerodrome Forecast
Issued by NWS Sioux Falls, SD

Home | Current Version | Previous Version | Graphics & Text | Print | Product List | Glossary On
Versions: 1 2 3 4 5 6 7 8 9 10 11 12 13 14 15 16 17 18 19 20 21 22 23 24 25 26 27 28
000
FTUS43 KFSD 252000 AAA
TAFSUX
TAF AMD
KSUX 252049Z 2521/2618 33007KT P6SM VCTS BKN100CB
     FM252300 33007KT P6SM BKN100
     FM260600 35008KT P6SM VCTS BKN060CB
      TEMPO 2608/2612 -TSRA BKN035CB
     FM261200 04006KT P6SM BKN080=

USA.gov is the U.S. government's official web portal to all federal, state and local government web resources and services.